Time;durP1;ratioP1;P1;durP2;ratioP2;P2;SDS_P1;SDS_P2;PMS_P1;PMS_P2;Temp;Humidity;BMP_temperature;BMP_pressure;BME280_temperature;BME280_humidity;BME280_pressure;Samples;Min_cycle;Max_cycle;Signal;HPM_P1;HPM_P2
2021/12/20 00:01:59;;;;;;;;;;;;;;;25.80;65.51;96289.03;604251;233;68715;-64
2021/12/20 00:04:26;;;;;;;;;;;;;;;25.78;63.43;96286.67;604273;234;65524;-63
2021/12/20 00:06:54;;;;;;;;;;;;;;;25.79;64.79;96274.79;604297;234;69100;-64
2021/12/20 00:09:21;;;;;;;;;;;;;;;25.77;63.61;96276.22;604299;234;68662;-64
2021/12/20 00:11:49;;;;;;;;;;;;;;;25.75;63.51;96276.52;604311;234;65029;-64
2021/12/20 00:14:16;;;;;;;;;;;;;;;25.75;63.77;96279.22;604315;234;68922;-63
2021/12/20 00:16:44;;;;;;;;;;;;;;;25.74;66.08;96283.03;604290;234;66475;-64
2021/12/20 00:19:11;;;;;;;;;;;;;;;25.72;66.79;96274.48;604292;234;63849;-64
2021/12/20 00:21:39;;;;;;;;;;;;;;;25.73;63.45;96259.11;604310;234;66622;-64
2021/12/20 00:24:07;;;;;;;;;;;;;;;25.70;60.92;96263.27;604283;234;66507;-64
2021/12/20 00:26:34;;;;;;;;;;;;;;;25.73;65.11;96272.56;604281;234;64923;-64
2021/12/20 00:29:02;;;;;;;;;;;;;;;25.70;65.50;96274.02;604285;234;68647;-64
2021/12/20 00:31:29;;;;;;;;;;;;;;;25.71;62.90;96278.28;604282;234;68769;-64
2021/12/20 00:33:57;;;;;;;;;;;;;;;25.68;60.16;96292.38;604299;234;64894;-64
2021/12/20 00:36:26;;;;;;;;;;;;;;;25.70;62.49;96279.41;604341;234;66599;-64
2021/12/20 00:41:39;;;;;;;;;;;;;;;25.70;61.44;96287.48;604297;234;63044;-63
2021/12/20 00:44:06;;;;;;;;;;;;;;;25.65;62.18;96282.27;604316;232;66552;-63
2021/12/20 00:46:34;;;;;;;;;;;;;;;25.66;64.51;96281.14;604335;234;66101;-67
2021/12/20 00:49:01;;;;;;;;;;;;;;;25.65;63.74;96285.73;604279;234;62977;-63
2021/12/20 00:51:29;;;;;;;;;;;;;;;25.66;63.33;96276.55;604335;234;68325;-63
2021/12/20 00:53:56;;;;;;;;;;;;;;;25.63;62.41;96284.47;603795;234;68749;-63
2021/12/20 00:56:24;;;;;;;;;;;;;;;25.62;65.32;96275.61;604306;234;65085;-63
2021/12/20 00:58:51;;;;;;;;;;;;;;;25.64;64.21;96277.97;604303;234;68452;-63
2021/12/20 01:01:19;;;;;;;;;;;;;;;25.62;65.92;96280.21;608117;232;68518;-63
2021/12/20 01:03:46;;;;;;;;;;;;;;;25.60;62.15;96279.73;609706;232;65057;-63
2021/12/20 01:06:14;;;;;;;;;;;;;;;25.59;66.47;96291.58;602931;235;68604;-63
2021/12/20 01:08:42;;;;;;;;;;;;;;;25.59;66.45;96286.20;609641;232;68528;-63
2021/12/20 01:11:09;;;;;;;;;;;;;;;25.58;61.72;96290.02;609705;232;64903;-63
2021/12/20 01:13:40;;;;;;;;;;;;;;;25.58;65.73;96281.94;602902;235;68251;-63
2021/12/20 01:16:07;;;;;;;;;;;;;;;25.55;64.08;96286.05;609593;232;68411;-63
2021/12/20 01:18:35;;;;;;;;;;;;;;;25.57;65.79;96277.68;609626;232;65070;-66
2021/12/20 01:21:03;;;;;;;;;;;;;;;25.56;66.76;96276.08;602918;235;66681;-67
2021/12/20 01:23:30;;;;;;;;;;;;;;;25.55;64.87;96277.20;609672;232;66708;-63
2021/12/20 01:25:58;;;;;;;;;;;;;;;25.55;65.76;96271.81;609647;232;65036;-63
2021/12/20 01:28:25;;;;;;;;;;;;;;;25.54;64.18;96270.25;602941;235;68801;-63
2021/12/20 01:30:53;;;;;;;;;;;;;;;25.55;65.31;96271.81;609596;232;68780;-63
2021/12/20 01:33:20;;;;;;;;;;;;;;;25.52;65.52;96259.01;609680;232;65041;-63
2021/12/20 01:35:47;;;;;;;;;;;;;;;25.50;66.87;96266.59;602933;235;68623;-63
2021/12/20 01:38:15;;;;;;;;;;;;;;;25.48;66.36;96266.91;609664;232;66696;-63
2021/12/20 01:40:42;;;;;;;;;;;;;;;25.49;65.71;96265.03;609655;232;62905;-63
2021/12/20 01:43:11;;;;;;;;;;;;;;;25.50;65.54;96266.59;602933;235;66584;-63
2021/12/20 01:45:39;;;;;;;;;;;;;;;25.49;64.38;96255.05;609651;232;68641;-64
2021/12/20 01:48:13;;;;;;;;;;;;;;;25.47;65.07;96252.67;609663;230;65062;-64
2021/12/20 01:53:17;;;;;;;;;;;;;;;25.46;63.37;96248.41;602559;235;68900;-68
2021/12/20 01:55:44;;;;;;;;;;;;;;;25.46;64.91;96245.72;602904;235;65091;-68
2021/12/20 01:58:12;;;;;;;;;;;;;;;25.47;63.71;96243.81;609674;232;68777;-68
2021/12/20 02:03:27;;;;;;;;;;;;;;;25.45;66.03;96233.39;603254;234;65134;-68
2021/12/20 02:05:58;;;;;;;;;;;;;;;25.44;62.19;96231.79;606513;234;68797;-68
2021/12/20 02:08:26;;;;;;;;;;;;;;;25.45;63.54;96233.39;606404;233;68797;-68
2021/12/20 02:10:55;;;;;;;;;;;;;;;25.44;60.98;96239.86;606540;234;65034;-68
2021/12/20 02:13:28;;;;;;;;;;;;;;;25.40;62.47;96224.66;606491;234;69003;-64
2021/12/20 02:15:53;;;;;;;;;;;;;;;25.37;62.74;96230.69;606435;233;68713;-68
2021/12/20 02:18:21;;;;;;;;;;;;;;;25.40;63.13;96230.05;606491;234;65000;-68
2021/12/20 02:20:48;;;;;;;;;;;;;;;25.36;62.13;96219.14;606479;234;68778;-68
2021/12/20 02:23:16;;;;;;;;;;;;;;;25.35;61.86;96225.64;606552;234;66429;-68
2021/12/20 02:25:43;;;;;;;;;;;;;;;25.35;62.42;96222.95;606516;234;62908;-68
2021/12/20 02:28:13;;;;;;;;;;;;;;;25.33;63.21;96230.54;606505;234;68427;-68
2021/12/20 02:38:42;;;;;;;;;;;;;;;25.33;63.19;96225.16;605704;234;66600;-67
2021/12/20 02:41:12;;;;;;;;;;;;;;;25.30;62.38;96233.08;605744;234;62882;-67
2021/12/20 02:43:42;;;;;;;;;;;;;;;25.29;62.90;96224.23;605581;234;68700;-67
2021/12/20 02:46:45;;;;;;;;;;;;;;;25.29;61.74;96218.85;605672;234;68739;-67
2021/12/20 02:48:56;;;;;;;;;;;;;;;25.25;62.33;96232.12;604738;234;65254;-67
2021/12/20 02:51:26;;;;;;;;;;;;;;;25.25;63.10;96207.13;605699;234;68817;-67
2021/12/20 02:53:54;;;;;;;;;;;;;;;25.25;63.48;96207.92;605657;234;66902;-67
2021/12/20 02:56:22;;;;;;;;;;;;;;;25.24;63.10;96210.95;605717;234;63008;-67
2021/12/20 02:58:49;;;;;;;;;;;;;;;25.23;63.28;96207.44;605686;234;66540;-67
2021/12/20 03:01:17;;;;;;;;;;;;;;;25.21;63.44;96201.61;604649;234;66829;-67
2021/12/20 03:03:45;;;;;;;;;;;;;;;25.21;63.44;96200.83;604270;234;62745;-67
2021/12/20 03:06:13;;;;;;;;;;;;;;;25.21;63.18;96201.61;604291;234;66291;-67
2021/12/20 03:08:45;;;;;;;;;;;;;;;25.19;62.59;96201.12;604253;234;68584;-67
2021/12/20 03:11:11;;;;;;;;;;;;;;;25.20;63.93;96204.60;604224;234;64926;-67
2021/12/20 03:13:39;;;;;;;;;;;;;;;25.19;62.88;96209.20;604265;234;68790;-67
2021/12/20 03:16:07;;;;;;;;;;;;;;;25.18;63.22;96204.94;604273;234;66536;-67
2021/12/20 03:18:34;;;;;;;;;;;;;;;25.16;62.99;96207.14;604272;234;62770;-67
2021/12/20 03:21:02;;;;;;;;;;;;;;;25.16;63.99;96207.14;604314;234;66417;-68
2021/12/20 03:23:29;;;;;;;;;;;;;;;25.16;64.12;96200.98;604224;234;66915;-68
2021/12/20 03:25:57;;;;;;;;;;;;;;;25.15;62.96;96215.52;604260;234;64921;-67
2021/12/20 03:28:24;;;;;;;;;;;;;;;25.14;64.08;96206.63;604254;234;68739;-67
2021/12/20 03:30:52;;;;;;;;;;;;;;;25.15;62.93;96202.08;604242;234;68708;-67
2021/12/20 03:33:19;;;;;;;;;;;;;;;25.16;63.60;96200.98;604318;235;64893;-64
2021/12/20 03:35:47;;;;;;;;;;;;;;;25.12;62.56;96194.62;604224;235;68654;-63
2021/12/20 03:38:14;;;;;;;;;;;;;;;25.12;63.14;96211.53;604243;235;68850;-64
2021/12/20 03:40:42;;;;;;;;;;;;;;;25.11;62.84;96206.48;604282;235;62920;-63
2021/12/20 03:43:12;;;;;;;;;;;;;;;25.11;63.53;96211.86;604271;235;68321;-64
2021/12/20 03:45:40;;;;;;;;;;;;;;;25.11;63.50;96207.27;604226;235;68674;-63
2021/12/20 03:48:08;;;;;;;;;;;;;;;25.11;63.20;96199.20;604306;235;65062;-63
2021/12/20 03:50:35;;;;;;;;;;;;;;;25.09;63.30;96206.79;604208;235;69126;-63
2021/12/20 03:53:03;;;;;;;;;;;;;;;25.10;62.65;96202.20;604243;235;68735;-63
2021/12/20 03:55:30;;;;;;;;;;;;;;;25.08;63.56;96213.28;604266;235;64860;-64
2021/12/20 03:57:58;;;;;;;;;;;;;;;25.09;63.04;96212.17;604252;235;68658;-64
2021/12/20 04:00:25;;;;;;;;;;;;;;;25.09;63.97;96209.48;604282;234;68800;-63
2021/12/20 04:02:53;;;;;;;;;;;;;;;25.08;64.22;96199.84;604226;234;65178;-63
2021/12/20 04:05:20;;;;;;;;;;;;;;;25.07;64.19;96227.03;604277;235;70523;-63
2021/12/20 04:07:48;;;;;;;;;;;;;;;25.06;63.82;96214.71;604232;235;68659;-64
2021/12/20 04:10:16;;;;;;;;;;;;;;;25.07;61.70;96205.52;604243;235;64762;-63
2021/12/20 04:12:43;;;;;;;;;;;;;;;25.05;63.75;96197.80;604303;235;66652;-63
2021/12/20 04:15:11;;;;;;;;;;;;;;;25.03;63.27;96197.31;604234;235;66450;-63
2021/12/20 04:17:38;;;;;;;;;;;;;;;25.03;64.10;96206.16;604127;235;62886;-67
2021/12/20 04:20:06;;;;;;;;;;;;;;;25.02;64.45;96199.22;604268;235;68654;-67
2021/12/20 04:22:34;;;;;;;;;;;;;;;25.00;64.15;96206.80;604217;235;68751;-66
2021/12/20 04:25:01;;;;;;;;;;;;;;;25.01;64.06;96200.30;604319;235;64924;-67
2021/12/20 04:27:29;;;;;;;;;;;;;;;25.00;63.11;96200.64;604254;234;68773;-63
2021/12/20 04:29:57;;;;;;;;;;;;;;;24.97;64.34;96199.37;604252;235;68318;-63
2021/12/20 04:32:24;;;;;;;;;;;;;;;24.98;62.78;96203.63;604250;235;63277;-63
2021/12/20 04:34:52;;;;;;;;;;;;;;;24.98;64.24;96206.31;604263;234;68888;-63
2021/12/20 04:37:19;;;;;;;;;;;;;;;24.97;64.15;96215.50;603807;235;69063;-63
2021/12/20 04:39:48;;;;;;;;;;;;;;;24.92;63.57;96212.97;604257;234;63041;-63
2021/12/20 04:42:16;;;;;;;;;;;;;;;24.95;63.56;96206.17;604255;234;68629;-64
2021/12/20 04:44:43;;;;;;;;;;;;;;;24.92;64.98;96215.65;604215;234;68587;-64
2021/12/20 04:47:11;;;;;;;;;;;;;;;24.94;65.77;96220.72;604281;234;65197;-64
2021/12/20 04:49:38;;;;;;;;;;;;;;;24.90;64.35;96223.23;604304;234;66139;-64
2021/12/20 04:52:06;;;;;;;;;;;;;;;24.91;64.38;96222.14;604343;234;66502;-64
2021/12/20 04:54:34;;;;;;;;;;;;;;;24.91;65.66;96219.45;604261;234;62919;-64
2021/12/20 04:57:01;;;;;;;;;;;;;;;24.90;63.86;96219.76;604257;234;66088;-64
2021/12/20 04:59:29;;;;;;;;;;;;;;;24.86;65.65;96222.30;604239;234;66159;-64
2021/12/20 05:01:56;;;;;;;;;;;;;;;24.86;64.36;96227.67;609464;232;65045;-64
2021/12/20 05:04:25;;;;;;;;;;;;;;;24.86;65.03;96222.30;609679;232;68856;-64
2021/12/20 05:06:52;;;;;;;;;;;;;;;24.85;63.99;96222.59;602828;235;68390;-64
2021/12/20 05:09:20;;;;;;;;;;;;;;;24.84;64.45;96213.75;609689;232;65038;-64
2021/12/20 05:11:51;;;;;;;;;;;;;;;24.83;64.14;96219.42;609562;232;66133;-64
2021/12/20 05:14:17;;;;;;;;;;;;;;;24.84;65.52;96221.81;602891;235;67114;-63
2021/12/20 05:16:45;;;;;;;;;;;;;;;24.82;64.49;96221.33;602894;235;62851;-64
2021/12/20 05:19:12;;;;;;;;;;;;;;;24.82;65.74;96215.95;609704;232;66578;-64
2021/12/20 05:21:40;;;;;;;;;;;;;;;24.79;66.37;96209.31;609646;232;66686;-64
2021/12/20 05:24:07;;;;;;;;;;;;;;;24.81;65.30;96211.70;602815;235;62725;-64
2021/12/20 05:26:35;;;;;;;;;;;;;;;24.80;65.36;96208.22;609503;232;68773;-64
2021/12/20 05:29:06;;;;;;;;;;;;;;;24.78;65.19;96209.64;609624;232;68580;-64
2021/12/20 05:31:33;;;;;;;;;;;;;;;24.78;64.53;96215.02;602801;233;63004;-63
2021/12/20 05:34:01;;;;;;;;;;;;;;;24.76;63.65;96217.22;602909;235;69611;-63
2021/12/20 05:36:28;;;;;;;;;;;;;;;24.80;63.68;96232.41;609625;232;68641;-63
2021/12/20 05:38:56;;;;;;;;;;;;;;;24.80;64.45;96234.31;609636;232;65087;-63
2021/12/20 05:41:24;;;;;;;;;;;;;;;24.80;65.28;96234.31;602934;235;68795;-63
2021/12/20 05:43:51;;;;;;;;;;;;;;;24.78;64.05;96241.88;609677;232;66162;-64
2021/12/20 05:46:18;;;;;;;;;;;;;;;24.76;65.49;96230.66;609668;232;62867;-63
2021/12/20 05:48:46;;;;;;;;;;;;;;;24.75;64.58;96239.83;602697;235;66638;-63
2021/12/20 05:51:13;;;;;;;;;;;;;;;24.74;64.70;96230.95;609587;232;68870;-63
2021/12/20 05:53:41;;;;;;;;;;;;;;;24.77;65.71;96240.28;609710;232;65054;-63
2021/12/20 05:56:08;;;;;;;;;;;;;;;24.76;65.13;96236.02;602894;235;68880;-64
2021/12/20 05:58:36;;;;;;;;;;;;;;;24.74;64.68;96240.91;609648;232;68693;-63
2021/12/20 06:01:04;;;;;;;;;;;;;;;24.71;64.83;96233.48;609151;232;64910;-63
2021/12/20 06:03:31;;;;;;;;;;;;;;;24.69;63.18;96236.50;602124;235;68681;-63
2021/12/20 06:05:59;;;;;;;;;;;;;;;24.71;64.67;96230.80;605696;234;68686;-63
2021/12/20 06:08:26;;;;;;;;;;;;;;;24.71;65.21;96231.58;605694;234;62729;-63
2021/12/20 06:10:54;;;;;;;;;;;;;;;24.71;65.63;96246.92;605682;234;66514;-63
2021/12/20 06:13:21;;;;;;;;;;;;;;;24.71;65.96;96252.30;605703;234;68997;-65
2021/12/20 06:15:49;;;;;;;;;;;;;;;24.69;63.96;96260.69;605663;234;64921;-63
2021/12/20 06:18:16;;;;;;;;;;;;;;;24.68;65.00;96259.08;605654;234;69175;-65
2021/12/20 06:20:45;;;;;;;;;;;;;;;24.69;65.37;96255.31;605737;234;66443;-63
2021/12/20 06:23:13;;;;;;;;;;;;;;;24.68;65.27;96258.30;605686;234;62975;-63
2021/12/20 06:25:40;;;;;;;;;;;;;;;24.71;65.41;96260.35;605669;234;66700;-63
2021/12/20 06:28:08;;;;;;;;;;;;;;;24.70;65.19;96258.78;605686;234;68775;-63
2021/12/20 06:30:35;;;;;;;;;;;;;;;24.68;65.40;96264.45;605670;234;65245;-63
2021/12/20 06:33:03;;;;;;;;;;;;;;;24.68;66.19;96263.67;605738;234;68688;-65
2021/12/20 06:35:30;;;;;;;;;;;;;;;24.67;64.75;96267.47;605698;234;67654;-63
2021/12/20 06:38:04;;;;;;;;;;;;;;;24.68;65.96;96275.20;605670;234;65186;-63
2021/12/20 06:40:28;;;;;;;;;;;;;;;24.69;67.02;96271.43;605294;234;68650;-63
2021/12/20 06:42:56;;;;;;;;;;;;;;;24.68;66.03;96272.52;605671;234;66664;-63
2021/12/20 06:45:23;;;;;;;;;;;;;;;24.68;65.52;96285.95;605700;234;62995;-63
2021/12/20 06:47:51;;;;;;;;;;;;;;;24.69;65.71;96284.05;605692;234;66606;-63
2021/12/20 06:50:19;;;;;;;;;;;;;;;24.67;65.13;96279.00;605630;234;66712;-63
2021/12/20 06:52:46;;;;;;;;;;;;;;;24.68;65.98;96293.22;605564;234;63019;-63
2021/12/20 06:55:14;;;;;;;;;;;;;;;24.66;64.66;96282.78;605669;234;66451;-63
2021/12/20 06:57:41;;;;;;;;;;;;;;;24.68;65.52;96285.16;605642;234;66370;-70
2021/12/20 07:00:09;;;;;;;;;;;;;;;24.68;65.09;96285.16;605281;234;64977;-63
2021/12/20 07:02:36;;;;;;;;;;;;;;;24.69;61.76;96294.80;604249;234;69462;-58
2021/12/20 07:05:04;;;;;;;;;;;;;;;24.69;60.01;96292.11;603578;234;68999;-59
2021/12/20 07:07:34;;;;;;;;;;;;;;;24.72;63.77;96286.14;604259;234;65104;-65
2021/12/20 07:10:02;;;;;;;;;;;;;;;24.75;59.83;96290.88;604307;234;68786;-64
2021/12/20 07:12:32;;;;;;;;;;;;;;;24.76;59.42;96287.08;604123;234;69334;-62
2021/12/20 07:14:59;;;;;;;;;;;;;;;24.78;58.02;96291.04;603912;234;65124;-60
2021/12/20 07:17:27;;;;;;;;;;;;;;;24.81;61.31;96285.03;604258;234;68788;-59
2021/12/20 07:19:54;;;;;;;;;;;;;;;24.82;59.27;96288.51;604054;234;68716;-59
2021/12/20 07:22:22;;;;;;;;;;;;;;;24.83;61.12;96287.42;604191;234;65024;-59
2021/12/20 07:24:49;;;;;;;;;;;;;;;24.91;61.78;96281.27;604304;234;68474;-60
2021/12/20 07:27:18;;;;;;;;;;;;;;;24.88;60.09;96289.97;604165;234;68666;-59
2021/12/20 07:29:46;;;;;;;;;;;;;;;24.89;62.41;96282.69;604229;234;62908;-60
2021/12/20 07:32:14;;;;;;;;;;;;;;;24.88;59.90;96281.91;604270;234;66927;-60
2021/12/20 07:34:41;;;;;;;;;;;;;;;24.91;62.33;96283.95;604186;234;66673;-63
2021/12/20 07:37:09;;;;;;;;;;;;;;;24.91;60.42;96281.27;604276;235;62958;-61
2021/12/20 07:39:37;;;;;;;;;;;;;;;24.92;62.98;96282.06;604195;235;69744;-60
2021/12/20 07:42:05;;;;;;;;;;;;;;;24.95;62.65;96279.52;604200;235;66565;-60
2021/12/20 07:44:33;;;;;;;;;;;;;;;24.94;60.78;96290.61;604238;235;65059;-60
2021/12/20 07:47:00;;;;;;;;;;;;;;;24.98;61.93;96288.86;604246;235;68743;-60
2021/12/20 07:49:28;;;;;;;;;;;;;;;24.98;60.77;96289.64;604250;235;68662;-61
2021/12/20 07:51:57;;;;;;;;;;;;;;;25.01;62.48;96288.23;604180;235;65030;-60
2021/12/20 07:54:26;;;;;;;;;;;;;;;25.06;60.91;96289.98;604165;235;66602;-60
2021/12/20 07:56:54;;;;;;;;;;;;;;;25.03;61.32;96283.33;604132;234;66599;-60
2021/12/20 07:59:21;;;;;;;;;;;;;;;25.07;59.29;96286.17;604560;234;62894;-60
2021/12/20 08:01:49;;;;;;;;;;;;;;;25.01;60.07;96294.39;604319;234;66419;-60
2021/12/20 08:04:17;;;;;;;;;;;;;;;25.02;60.16;96295.98;604781;234;68691;-61
2021/12/20 08:06:45;;;;;;;;;;;;;;;25.06;57.32;96303.42;604927;234;64879;-60
2021/12/20 08:09:14;;;;;;;;;;;;;;;25.06;57.79;96306.11;604877;234;68758;-61
2021/12/20 08:11:42;;;;;;;;;;;;;;;25.07;58.62;96313.84;605029;234;68300;-60
2021/12/20 08:14:10;;;;;;;;;;;;;;;25.14;59.11;96318.77;605023;234;65772;-61
2021/12/20 08:16:37;;;;;;;;;;;;;;;25.11;58.05;96314.03;604988;234;68676;-69
2021/12/20 08:19:05;;;;;;;;;;;;;;;25.13;57.52;96307.23;604878;234;69015;-66
2021/12/20 08:21:33;;;;;;;;;;;;;;;25.15;57.22;96313.09;605050;234;65021;-68
2021/12/20 08:24:00;;;;;;;;;;;;;;;25.16;58.78;96316.59;604957;234;68740;-66
2021/12/20 08:26:28;;;;;;;;;;;;;;;25.14;56.60;96319.56;605041;234;68706;-66
2021/12/20 08:28:55;;;;;;;;;;;;;;;25.13;57.92;96317.20;605080;234;62728;-66
2021/12/20 08:31:23;;;;;;;;;;;;;;;25.16;57.02;96335.42;604984;234;66427;-66
2021/12/20 08:33:50;;;;;;;;;;;;;;;25.22;59.89;96328.78;604978;234;66613;-67
2021/12/20 08:36:18;;;;;;;;;;;;;;;25.22;60.38;96334.16;605067;234;63807;-68
2021/12/20 08:38:46;;;;;;;;;;;;;;;25.23;58.53;96324.97;604977;234;68500;-67
2021/12/20 08:41:14;;;;;;;;;;;;;;;25.24;59.09;96330.05;605062;234;68894;-68
2021/12/20 08:43:41;;;;;;;;;;;;;;;25.27;57.26;96328.63;605040;234;65039;-67
2021/12/20 08:46:10;;;;;;;;;;;;;;;25.27;58.76;96339.38;604981;234;69056;-68
2021/12/20 08:48:37;;;;;;;;;;;;;;;25.27;55.89;96349.36;605020;234;67280;-67
2021/12/20 08:51:06;;;;;;;;;;;;;;;25.33;55.03;96348.09;604970;234;65040;-67
2021/12/20 08:53:34;;;;;;;;;;;;;;;25.34;56.84;96344.28;605072;234;66744;-67
2021/12/20 08:56:02;;;;;;;;;;;;;;;25.37;55.72;96347.16;604978;234;66632;-67
2021/12/20 08:58:29;;;;;;;;;;;;;;;25.40;56.11;96357.28;604941;234;62957;-65
2021/12/20 09:00:57;;;;;;;;;;;;;;;25.41;59.87;96340.02;606822;233;66373;-66
2021/12/20 09:03:25;;;;;;;;;;;;;;;25.40;57.10;96348.39;608504;233;66228;-65
2021/12/20 09:05:53;;;;;;;;;;;;;;;25.42;58.04;96338.12;608377;233;65072;-66
2021/12/20 09:08:22;;;;;;;;;;;;;;;25.42;56.44;96352.35;608500;233;68368;-67
2021/12/20 09:10:49;;;;;;;;;;;;;;;25.41;56.55;96340.02;608298;233;68455;-67
2021/12/20 09:13:17;;;;;;;;;;;;;;;25.44;56.51;96346.67;608291;233;65142;-67
2021/12/20 09:15:44;;;;;;;;;;;;;;;25.43;56.66;96335.13;608475;233;68485;-65
2021/12/20 09:18:12;;;;;;;;;;;;;;;25.43;57.34;96340.50;608477;233;68439;-68
2021/12/20 09:20:40;;;;;;;;;;;;;;;25.43;58.15;96342.41;608506;233;64925;-67
2021/12/20 09:23:10;;;;;;;;;;;;;;;25.45;61.36;96332.10;608500;233;66306;-66
2021/12/20 09:25:38;;;;;;;;;;;;;;;25.41;55.41;96339.23;608439;232;66407;-65
2021/12/20 09:28:08;;;;;;;;;;;;;;;25.43;57.82;96334.34;608364;233;66036;-67
2021/12/20 09:30:36;;;;;;;;;;;;;;;25.43;58.13;96334.34;608507;233;66770;-69
2021/12/20 09:33:04;;;;;;;;;;;;;;;25.49;55.68;96332.28;608539;233;68985;-66
2021/12/20 09:35:32;;;;;;;;;;;;;;;25.46;57.60;96336.39;608431;233;62796;-69
2021/12/20 09:38:00;;;;;;;;;;;;;;;25.45;60.53;96327.53;608442;233;66455;-67
2021/12/20 09:40:36;;;;;;;;;;;;;;;25.43;54.98;96328.95;601595;235;68756;-64
2021/12/20 09:43:03;;;;;;;;;;;;;;;25.45;55.19;96335.61;608247;233;64974;-66
2021/12/20 09:45:31;;;;;;;;;;;;;;;25.45;55.66;96340.98;608453;233;69781;-66
2021/12/20 09:47:58;;;;;;;;;;;;;;;25.43;54.27;96337.81;608439;233;68724;-68
2021/12/20 09:50:26;;;;;;;;;;;;;;;25.50;56.10;96331.16;608444;233;64937;-70
2021/12/20 09:52:54;;;;;;;;;;;;;;;25.52;56.87;96337.03;608426;230;68463;-69
2021/12/20 09:55:22;;;;;;;;;;;;;;;25.50;56.59;96348.09;608455;233;68511;-67
2021/12/20 09:57:50;;;;;;;;;;;;;;;25.50;55.60;96348.09;608433;233;64901;-69
2021/12/20 10:00:19;;;;;;;;;;;;;;;25.53;56.86;96335.91;608485;233;69008;-67
2021/12/20 10:02:47;;;;;;;;;;;;;;;25.50;56.56;96320.41;608432;233;66905;-67
2021/12/20 10:05:17;;;;;;;;;;;;;;;25.49;55.34;96332.28;608397;233;65035;-67
2021/12/20 10:07:56;;;;;;;;;;;;;;;25.49;56.54;96326.91;608475;233;66669;-66
2021/12/20 10:10:35;;;;;;;;;;;;;;;25.51;56.37;96320.09;601429;235;68739;-65
2021/12/20 10:13:03;;;;;;;;;;;;;;;25.53;57.11;96333.22;601415;236;64913;-66
2021/12/20 10:15:35;;;;;;;;;;;;;;;25.50;56.77;96325.78;608560;233;68690;-67
2021/12/20 10:18:05;;;;;;;;;;;;;;;25.50;57.14;96331.95;601488;235;68647;-67
2021/12/20 10:20:34;;;;;;;;;;;;;;;25.50;56.93;96333.85;608505;233;62748;-67
2021/12/20 10:23:15;;;;;;;;;;;;;;;25.51;57.76;96338.11;608444;233;66650;-67
2021/12/20 10:25:44;;;;;;;;;;;;;;;25.49;56.14;96337.66;608401;233;67680;-70
2021/12/20 10:28:21;;;;;;;;;;;;;;;25.52;60.55;96335.12;608446;233;65185;-70
2021/12/20 10:30:51;;;;;;;;;;;;;;;25.53;58.96;96341.29;601713;234;73382;-71
2021/12/20 10:33:20;;;;;;;;;;;;;;;25.49;56.13;96351.11;608430;233;68702;-69
2021/12/20 10:35:49;;;;;;;;;;;;;;;25.51;59.46;96349.69;608443;233;64946;-69
2021/12/20 10:38:24;;;;;;;;;;;;;;;25.49;58.55;96351.11;608406;233;66604;-69
2021/12/20 10:40:53;;;;;;;;;;;;;;;25.49;57.75;96356.49;608446;233;67216;-70
2021/12/20 10:43:22;;;;;;;;;;;;;;;25.47;56.76;96357.58;608495;233;63029;-66
2021/12/20 10:45:54;;;;;;;;;;;;;;;25.47;56.67;96357.58;608480;233;68707;-66
2021/12/20 10:48:21;;;;;;;;;;;;;;;25.49;57.41;96365.34;608341;233;66834;-67
2021/12/20 10:50:49;;;;;;;;;;;;;;;25.51;60.12;96355.07;608449;233;63001;-69
2021/12/20 10:53:18;;;;;;;;;;;;;;;25.50;58.71;96358.06;608331;233;68786;-66
2021/12/20 10:55:47;;;;;;;;;;;;;;;25.48;56.78;96366.44;608405;233;68673;-67
2021/12/20 10:58:32;;;;;;;;;;;;;;;25.48;56.47;96361.05;608451;233;64989;-65
2021/12/20 11:01:06;;;;;;;;;;;;;;;25.51;58.71;96367.70;606390;233;66483;-68
2021/12/20 11:03:40;;;;;;;;;;;;;;;25.51;55.80;96378.47;604964;234;68734;-67
2021/12/20 11:11:32;;;;;;;;;;;;;;;25.47;55.11;96381.01;604928;232;68401;-66
2021/12/20 11:14:01;;;;;;;;;;;;;;;25.51;56.01;96371.21;604938;234;64654;-66
2021/12/20 11:16:39;;;;;;;;;;;;;;;25.51;56.88;96376.59;604861;232;68983;-66
2021/12/20 11:19:23;;;;;;;;;;;;;;;25.39;55.48;96366.44;604902;234;68817;-69
2021/12/20 11:21:52;;;;;;;;;;;;;;;25.38;54.69;96372.14;604923;234;62885;-69
2021/12/20 11:24:22;;;;;;;;;;;;;;;25.37;55.11;96374.05;604963;232;68833;-70
2021/12/20 11:26:49;;;;;;;;;;;;;;;25.37;54.33;96379.43;604841;234;66616;-69
2021/12/20 11:29:18;;;;;;;;;;;;;;;25.36;55.22;96396.66;604933;234;65087;-70
2021/12/20 11:31:46;;;;;;;;;;;;;;;25.36;56.61;96385.11;604996;234;68633;-70
2021/12/20 11:34:14;;;;;;;;;;;;;;;25.34;56.25;96381.94;604653;234;68747;-71
2021/12/20 11:36:41;;;;;;;;;;;;;;;25.34;55.23;96384.62;605009;234;64861;-71
2021/12/20 11:39:09;;;;;;;;;;;;;;;25.34;55.23;96382.72;604902;234;68876;-69
2021/12/20 11:41:37;;;;;;;;;;;;;;;25.32;55.67;96394.90;605027;234;68715;-69
2021/12/20 11:44:06;;;;;;;;;;;;;;;25.37;57.05;96373.23;604883;234;63786;-70
2021/12/20 11:46:51;;;;;;;;;;;;;;;25.37;53.96;96375.92;604933;234;68801;-68
2021/12/20 11:49:23;;;;;;;;;;;;;;;25.36;59.05;96387.80;604889;234;66644;-68
2021/12/20 11:52:01;;;;;;;;;;;;;;;25.34;55.38;96398.86;604958;234;65008;-68
2021/12/20 11:54:34;;;;;;;;;;;;;;;25.35;55.49;96405.84;605032;234;68615;-67
2021/12/20 11:57:01;;;;;;;;;;;;;;;25.40;54.17;96405.70;598209;236;68486;-69
2021/12/20 11:59:49;;;;;;;;;;;;;;;25.43;55.70;96402.38;605043;234;62733;-67
2021/12/20 12:02:21;;;;;;;;;;;;;;;25.43;55.42;96412.34;604630;234;66538;-68
2021/12/20 12:04:59;;;;;;;;;;;;;;;25.42;54.28;96414.22;604870;234;66944;-69
2021/12/20 12:07:28;;;;;;;;;;;;;;;25.44;54.64;96421.98;605003;234;63095;-68
2021/12/20 12:09:59;;;;;;;;;;;;;;;25.41;55.17;96415.34;604965;234;68698;-69
2021/12/20 12:12:28;;;;;;;;;;;;;;;25.41;53.87;96420.72;604917;234;68571;-68
2021/12/20 12:15:04;;;;;;;;;;;;;;;25.40;53.74;96427.22;605045;234;65027;-67
2021/12/20 12:17:30;;;;;;;;;;;;;;;25.37;55.15;96430.53;604910;234;67235;-68
2021/12/20 12:19:58;;;;;;;;;;;;;;;25.40;55.63;96429.91;596283;237;68501;-69
2021/12/20 12:22:40;;;;;;;;;;;;;;;25.43;56.61;96423.89;605027;234;63979;-69
2021/12/20 12:25:09;;;;;;;;;;;;;;;25.38;53.68;96429.41;604906;232;68634;-67
2021/12/20 12:27:38;;;;;;;;;;;;;;;25.40;56.10;96426.39;605003;234;66724;-68
2021/12/20 12:30:16;;;;;;;;;;;;;;;25.37;54.44;96438.61;605008;234;64897;-65
2021/12/20 12:32:51;;;;;;;;;;;;;;;25.45;54.94;96443.20;604964;234;68931;-67
2021/12/20 12:35:37;;;;;;;;;;;;;;;25.45;54.58;96440.52;605001;234;68806;-69
2021/12/20 12:38:16;;;;;;;;;;;;;;;25.45;55.06;96456.66;604994;234;63093;-67
2021/12/20 12:40:49;;;;;;;;;;;;;;;25.46;58.05;96442.09;604986;234;67771;-68
2021/12/20 12:43:21;;;;;;;;;;;;;;;25.46;56.84;96450.16;605043;234;68609;-67
2021/12/20 12:45:50;;;;;;;;;;;;;;;25.45;54.58;96448.59;604854;234;65076;-67
2021/12/20 12:48:36;;;;;;;;;;;;;;;25.47;53.78;96459.80;604948;234;68632;-67
2021/12/20 12:51:14;;;;;;;;;;;;;;;25.48;55.97;96463.28;605046;234;66775;-66
2021/12/20 12:53:43;;;;;;;;;;;;;;;25.50;55.45;96465.67;604971;234;62738;-66
2021/12/20 12:56:27;;;;;;;;;;;;;;;25.50;54.84;96474.53;604917;234;69024;-67
2021/12/20 12:59:15;;;;;;;;;;;;;;;25.51;54.78;96468.06;605026;232;66681;-66
2021/12/20 13:01:50;;;;;;;;;;;;;;;25.51;58.91;96473.45;607960;233;65271;-67
2021/12/20 13:04:17;;;;;;;;;;;;;;;25.51;54.60;96483.39;608360;233;66774;-66
2021/12/20 13:06:45;;;;;;;;;;;;;;;25.51;55.55;96489.59;608381;233;66702;-67
2021/12/20 13:09:14;;;;;;;;;;;;;;;25.52;55.58;96479.61;608413;233;62441;-70
2021/12/20 13:11:41;;;;;;;;;;;;;;;25.54;54.80;96498.94;608514;233;66590;-68
2021/12/20 13:14:14;;;;;;;;;;;;;;;25.56;54.79;96491.31;602373;233;68191;-69
2021/12/20 13:16:43;;;;;;;;;;;;;;;25.55;55.89;96503.98;608400;232;65376;-68
2021/12/20 13:19:13;;;;;;;;;;;;;;;25.55;55.75;96489.74;608086;233;66362;-63